Time;durP1;ratioP1;P1;durP2;ratioP2;P2;SDS_P1;SDS_P2;PMS_P1;PMS_P2;Temp;Humidity;BMP_temperature;BMP_pressure;BME280_temperature;BME280_humidity;BME280_pressure;Samples;Min_cycle;Max_cycle;Signal;HPM_P1;HPM_P2
2023/04/02 00:02:28;;;;;;;2.88;0.70;;;9.60;99.90;;;;;;5037642;28;20393;-86
2023/04/02 00:05:15;;;;;;;2.20;0.88;;;9.60;99.90;;;;;;5055801;28;20487;-86
2023/04/02 00:07:43;;;;;;;1.20;0.70;;;9.70;99.90;;;;;;5038043;28;20822;-87
2023/04/02 00:10:28;;;;;;;1.30;0.70;;;9.60;99.90;;;;;;5055372;28;20377;-86
2023/04/02 00:13:03;;;;;;;1.30;0.80;;;9.60;99.90;;;;;;5055796;28;20871;-86
2023/04/02 00:15:30;;;;;;;1.40;0.80;;;9.60;99.90;;;;;;5055862;28;20480;-87
2023/04/02 00:18:02;;;;;;;1.10;0.70;;;9.60;99.90;;;;;;5037642;28;20393;-87
2023/04/02 00:20:34;;;;;;;1.23;0.63;;;9.60;99.90;;;;;;5037424;28;20398;-87
2023/04/02 00:23:02;;;;;;;3.92;1.10;;;9.60;99.90;;;;;;5037286;28;20396;-86
2023/04/02 00:25:32;;;;;;;3.20;0.80;;;9.60;99.90;;;;;;5037316;28;20385;-86
2023/04/02 00:27:58;;;;;;;1.30;0.70;;;9.60;99.90;;;;;;5049750;28;20412;-87
2023/04/02 00:30:24;;;;;;;2.13;0.80;;;9.60;99.90;;;;;;5038622;28;20395;-87
2023/04/02 00:32:50;;;;;;;1.67;0.77;;;9.60;99.90;;;;;;5038725;28;20834;-86
2023/04/02 00:35:27;;;;;;;3.05;1.05;;;9.60;99.90;;;;;;5037050;28;20735;-87
2023/04/02 00:37:54;;;;;;;2.35;1.02;;;9.50;99.90;;;;;;5054438;28;20426;-87
2023/04/02 00:40:24;;;;;;;2.47;0.80;;;9.50;99.90;;;;;;5054487;28;20412;-87
2023/04/02 00:42:52;;;;;;;2.50;0.90;;;9.50;99.90;;;;;;5054438;28;20388;-86
2023/04/02 00:45:27;;;;;;;1.20;0.65;;;9.50;99.90;;;;;;5054528;28;20390;-86
2023/04/02 00:47:55;;;;;;;1.30;0.80;;;9.60;99.90;;;;;;5036623;28;20896;-87
2023/04/02 00:50:33;;;;;;;2.03;0.70;;;9.60;99.90;;;;;;5037065;28;20393;-87
2023/04/02 00:53:03;;;;;;;1.88;0.60;;;9.60;99.90;;;;;;5055531;28;20381;-86
2023/04/02 00:55:40;;;;;;;0.80;0.60;;;9.60;99.90;;;;;;5054055;28;20378;-87
2023/04/02 00:58:35;;;;;;;2.03;0.80;;;9.60;99.90;;;;;;5037731;28;20428;-87
2023/04/02 01:01:01;;;;;;;2.55;0.70;;;9.50;99.90;;;;;;5042245;28;20424;-87
2023/04/02 01:03:35;;;;;;;1.48;0.70;;;9.50;99.90;;;;;;5055972;28;20728;-87
2023/04/02 01:06:15;;;;;;;1.50;0.60;;;9.40;99.90;;;;;;5074851;28;20465;-88
2023/04/02 01:09:15;;;;;;;2.55;1.00;;;9.50;99.90;;;;;;5047492;28;20407;-87
2023/04/02 01:11:40;;;;;;;0.90;0.60;;;9.50;99.90;;;;;;5051564;28;20443;-86
2023/04/02 01:14:15;;;;;;;2.40;0.70;;;9.50;99.90;;;;;;5071050;28;20411;-86
2023/04/02 01:17:03;;;;;;;2.40;0.63;;;9.50;99.90;;;;;;5052478;28;20458;-87
2023/04/02 01:20:06;;;;;;;2.08;0.60;;;9.50;99.90;;;;;;5061936;28;20405;-87
2023/04/02 01:22:47;;;;;;;3.07;1.00;;;9.50;99.90;;;;;;5063609;28;20767;-86
2023/04/02 01:25:20;;;;;;;2.00;0.70;;;9.40;99.90;;;;;;5054839;28;20374;-86
2023/04/02 01:27:58;;;;;;;1.30;0.60;;;9.50;99.90;;;;;;5054858;28;20377;-86
2023/04/02 01:30:23;;;;;;;2.90;0.70;;;9.50;99.90;;;;;;5054878;28;20388;-86
2023/04/02 01:32:49;;;;;;;1.00;0.60;;;9.50;99.90;;;;;;5054718;28;20423;-86
2023/04/02 01:35:16;;;;;;;0.60;0.60;;;9.40;99.90;;;;;;5047996;28;20392;-86
2023/04/02 01:37:48;;;;;;;2.07;0.70;;;9.50;99.90;;;;;;5055108;28;20395;-85
2023/04/02 01:40:38;;;;;;;1.50;0.90;;;9.40;99.90;;;;;;5053481;28;20496;-85
2023/04/02 01:43:21;;;;;;;1.55;0.70;;;9.40;99.90;;;;;;5055499;28;20389;-85
2023/04/02 01:45:48;;;;;;;2.00;1.00;;;9.30;99.90;;;;;;5070520;28;20750;-86
2023/04/02 01:48:23;;;;;;;1.30;0.70;;;9.40;99.90;;;;;;5056145;28;20429;-86
2023/04/02 01:50:51;;;;;;;0.90;0.60;;;9.40;99.90;;;;;;5074176;28;20380;-86
2023/04/02 01:53:19;;;;;;;2.30;0.80;;;9.30;99.90;;;;;;5056297;28;20464;-86
2023/04/02 01:55:47;;;;;;;1.20;0.60;;;9.50;99.90;;;;;;5055466;28;20881;-86
2023/04/02 01:58:16;;;;;;;0.63;0.60;;;9.50;99.90;;;;;;5055395;28;20503;-85
2023/04/02 02:00:50;;;;;;;1.60;0.80;;;9.40;99.90;;;;;;5055277;28;20878;-86
2023/04/02 02:03:17;;;;;;;1.33;0.70;;;9.40;99.90;;;;;;5055914;28;20419;-86
2023/04/02 02:05:42;;;;;;;1.10;0.60;;;9.40;99.90;;;;;;5055251;28;20435;-86
2023/04/02 02:08:46;;;;;;;1.20;0.60;;;9.40;99.90;;;;;;5056286;28;20412;-85
2023/04/02 02:11:25;;;;;;;1.20;0.50;;;9.40;99.90;;;;;;5018068;28;20852;-85
2023/04/02 02:14:00;;;;;;;1.00;0.80;;;9.30;99.90;;;;;;5055006;28;20912;-86
2023/04/02 02:16:30;;;;;;;1.40;0.80;;;9.30;99.90;;;;;;5054641;28;20456;-86
2023/04/02 02:19:01;;;;;;;1.48;0.80;;;9.30;99.90;;;;;;5055392;28;20394;-86
2023/04/02 02:21:45;;;;;;;1.00;0.90;;;9.20;99.90;;;;;;5055272;28;20861;-86
2023/04/02 02:24:17;;;;;;;5.60;1.27;;;9.30;99.90;;;;;;5055721;28;20749;-86
2023/04/02 02:26:45;;;;;;;3.20;1.80;;;9.30;99.90;;;;;;5079769;28;20371;-86
2023/04/02 02:29:17;;;;;;;1.90;0.87;;;9.20;99.90;;;;;;5066685;28;20383;-85
2023/04/02 02:31:44;;;;;;;1.60;1.00;;;9.20;99.90;;;;;;5064757;28;20467;-85
2023/04/02 02:34:23;;;;;;;2.80;1.00;;;9.10;99.90;;;;;;5056947;28;20384;-85
2023/04/02 02:36:55;;;;;;;1.30;0.93;;;9.10;99.90;;;;;;5073776;28;20814;-87
2023/04/02 02:39:38;;;;;;;2.30;1.33;;;9.00;99.90;;;;;;5056203;28;20384;-86
2023/04/02 02:42:15;;;;;;;2.10;0.90;;;9.00;99.90;;;;;;5056957;28;20399;-86
2023/04/02 02:44:47;;;;;;;1.90;1.00;;;9.00;99.90;;;;;;5066619;28;20898;-86
2023/04/02 02:47:22;;;;;;;1.55;1.00;;;8.90;99.90;;;;;;5035556;28;20453;-85
2023/04/02 02:50:02;;;;;;;1.55;0.80;;;8.90;99.90;;;;;;5037368;28;20456;-86
2023/04/02 02:52:32;;;;;;;1.65;0.90;;;8.80;99.90;;;;;;5055641;28;20393;-86
2023/04/02 02:55:02;;;;;;;1.85;0.70;;;8.90;99.90;;;;;;5038138;28;20386;-86
2023/04/02 02:57:40;;;;;;;1.80;1.00;;;8.80;99.90;;;;;;5037136;28;20392;-86
2023/04/02 03:00:10;;;;;;;2.40;0.90;;;8.80;99.90;;;;;;5056689;28;20472;-87
2023/04/02 03:02:40;;;;;;;1.60;0.80;;;8.80;99.90;;;;;;5054831;28;20386;-86
2023/04/02 03:05:06;;;;;;;2.67;1.00;;;8.80;99.90;;;;;;5054295;28;20397;-86
2023/04/02 03:07:32;;;;;;;1.80;0.85;;;8.80;99.90;;;;;;5037809;28;20381;-86
2023/04/02 03:10:09;;;;;;;1.70;0.70;;;8.80;99.90;;;;;;5055141;28;20439;-87
2023/04/02 03:12:37;;;;;;;1.80;1.05;;;8.80;99.90;;;;;;5055011;28;20401;-86
2023/04/02 03:15:22;;;;;;;3.97;1.00;;;8.80;99.90;;;;;;5037122;28;20384;-86
2023/04/02 03:18:24;;;;;;;0.70;0.60;;;8.80;99.90;;;;;;5036331;28;20437;-86
2023/04/02 03:21:15;;;;;;;1.42;0.70;;;8.80;99.90;;;;;;5033915;28;20409;-87
2023/04/02 03:24:03;;;;;;;1.08;0.90;;;8.80;99.90;;;;;;5044442;28;20385;-86
2023/04/02 03:26:35;;;;;;;2.33;1.00;;;8.80;99.90;;;;;;5049823;28;20484;-85
2023/04/02 03:29:07;;;;;;;1.13;0.60;;;8.60;99.90;;;;;;5060290;28;20497;-86
2023/04/02 03:31:43;;;;;;;2.70;0.80;;;8.70;99.90;;;;;;5060586;28;20378;-86
2023/04/02 03:34:39;;;;;;;1.00;0.80;;;8.70;99.90;;;;;;5036651;28;20794;-86
2023/04/02 03:37:31;;;;;;;2.05;0.90;;;8.60;99.90;;;;;;5027895;28;20392;-86
2023/04/02 03:39:59;;;;;;;1.00;0.80;;;8.60;99.90;;;;;;5041291;28;20439;-87
2023/04/02 03:42:27;;;;;;;1.13;0.73;;;8.60;99.90;;;;;;5037279;28;20381;-86
2023/04/02 03:45:09;;;;;;;1.60;0.70;;;8.60;99.90;;;;;;5045372;28;21000;-86
2023/04/02 03:47:37;;;;;;;2.25;0.75;;;8.50;99.90;;;;;;5055435;28;20398;-87
2023/04/02 03:50:26;;;;;;;1.20;0.60;;;8.60;99.90;;;;;;5056365;28;20376;-86
2023/04/02 03:52:52;;;;;;;1.10;0.80;;;8.50;99.90;;;;;;5074977;28;20788;-86
2023/04/02 03:55:22;;;;;;;0.80;0.80;;;8.40;99.90;;;;;;5078670;28;20429;-87
2023/04/02 03:58:05;;;;;;;1.80;1.20;;;8.60;99.90;;;;;;5078068;28;20375;-87
2023/04/02 04:00:46;;;;;;;2.10;0.80;;;8.60;99.90;;;;;;5069671;28;20459;-86
2023/04/02 04:03:20;;;;;;;0.80;0.80;;;8.50;99.90;;;;;;5055616;28;20387;-87
2023/04/02 04:06:18;;;;;;;1.60;0.40;;;8.50;99.90;;;;;;5073743;28;20387;-86
2023/04/02 04:08:50;;;;;;;0.90;0.60;;;8.60;99.90;;;;;;5057641;28;20388;-87
2023/04/02 04:11:21;;;;;;;1.17;0.53;;;8.50;99.90;;;;;;5055104;28;20484;-86
2023/04/02 04:13:59;;;;;;;1.35;0.60;;;8.50;99.90;;;;;;5073345;28;20380;-87
2023/04/02 04:16:30;;;;;;;0.90;0.40;;;8.50;99.90;;;;;;5055213;28;20388;-86
2023/04/02 04:19:02;;;;;;;1.00;0.50;;;8.40;99.90;;;;;;5055740;28;20391;-86
2023/04/02 04:21:29;;;;;;;1.10;0.60;;;8.30;99.90;;;;;;5054658;28;20425;-86
2023/04/02 04:24:02;;;;;;;1.10;0.40;;;8.30;99.90;;;;;;5055313;28;20413;-86
2023/04/02 04:26:48;;;;;;;1.23;0.50;;;8.30;99.90;;;;;;5054359;28;20391;-86
2023/04/02 04:29:30;;;;;;;1.00;0.60;;;8.30;99.90;;;;;;5072444;28;20479;-86
2023/04/02 04:32:07;;;;;;;0.88;0.40;;;8.30;99.90;;;;;;5059425;28;20406;-87
2023/04/02 04:34:45;;;;;;;0.60;0.50;;;8.40;99.90;;;;;;5073113;28;20391;-86
2023/04/02 04:37:27;;;;;;;1.42;0.70;;;8.40;99.90;;;;;;5071771;28;20940;-87
2023/04/02 04:40:04;;;;;;;0.60;0.47;;;8.40;99.90;;;;;;5053497;28;20412;-86
2023/04/02 04:42:33;;;;;;;0.70;0.60;;;8.40;99.90;;;;;;5053479;28;20897;-87
2023/04/02 04:45:25;;;;;;;0.85;0.65;;;8.40;99.90;;;;;;5062463;28;20451;-86
2023/04/02 04:48:08;;;;;;;1.30;0.40;;;8.40;99.90;;;;;;5036955;28;20472;-86
2023/04/02 04:50:40;;;;;;;0.90;0.50;;;8.50;99.90;;;;;;5055047;28;20461;-86
2023/04/02 04:53:07;;;;;;;0.60;0.40;;;8.30;99.90;;;;;;5070497;28;20404;-87
2023/04/02 04:55:41;;;;;;;0.80;0.40;;;8.40;99.90;;;;;;5037601;28;20882;-86
2023/04/02 04:58:22;;;;;;;0.70;0.40;;;8.30;99.90;;;;;;5037901;28;20386;-86
2023/04/02 05:00:47;;;;;;;0.55;0.43;;;8.30;99.90;;;;;;5036281;28;20405;-86
2023/04/02 05:03:30;;;;;;;0.60;0.40;;;8.30;99.90;;;;;;5054141;28;20392;-87
2023/04/02 05:06:10;;;;;;;1.60;0.50;;;8.20;99.90;;;;;;5036288;28;20393;-87
2023/04/02 05:08:41;;;;;;;0.50;0.50;;;8.10;99.90;;;;;;5036310;28;20386;-86
2023/04/02 05:11:18;;;;;;;0.90;0.50;;;8.10;99.90;;;;;;5036372;28;20818;-86
2023/04/02 05:13:53;;;;;;;0.70;0.50;;;8.10;99.90;;;;;;5036686;28;20452;-86
2023/04/02 05:16:33;;;;;;;0.80;0.50;;;8.00;99.90;;;;;;5036702;28;20377;-87
2023/04/02 05:19:07;;;;;;;0.60;0.40;;;8.00;99.90;;;;;;5036785;28;20450;-86
2023/04/02 05:21:48;;;;;;;0.80;0.50;;;8.10;99.90;;;;;;5036661;28;20440;-87
2023/04/02 05:24:50;;;;;;;0.40;0.40;;;8.10;99.90;;;;;;5038749;28;20397;-86
2023/04/02 05:27:19;;;;;;;0.50;0.40;;;8.10;99.90;;;;;;5037098;28;20385;-87
2023/04/02 05:29:49;;;;;;;0.40;0.32;;;8.10;99.90;;;;;;5055021;28;20759;-87
2023/04/02 05:32:22;;;;;;;0.68;0.40;;;8.10;99.90;;;;;;5036608;28;20397;-87
2023/04/02 05:34:53;;;;;;;0.80;0.40;;;8.10;99.90;;;;;;5055698;28;20447;-87
2023/04/02 05:37:22;;;;;;;0.50;0.30;;;8.10;99.90;;;;;;5055402;28;20503;-87
2023/04/02 05:39:55;;;;;;;0.40;0.30;;;8.10;99.90;;;;;;5037831;28;20462;-87
2023/04/02 05:42:24;;;;;;;0.40;0.30;;;8.10;99.90;;;;;;5055111;28;20385;-87
2023/04/02 05:45:12;;;;;;;0.50;0.40;;;8.10;99.90;;;;;;5043730;28;20392;-87
2023/04/02 05:47:42;;;;;;;0.90;0.30;;;8.10;99.90;;;;;;5083761;28;20407;-87
2023/04/02 05:50:23;;;;;;;1.50;0.50;;;8.10;99.90;;;;;;5061620;28;20753;-87
2023/04/02 05:52:55;;;;;;;1.20;0.40;;;8.10;99.90;;;;;;5057482;28;20451;-87
2023/04/02 05:55:25;;;;;;;0.40;0.30;;;8.10;99.90;;;;;;5074945;28;20390;-87
2023/04/02 05:57:58;;;;;;;1.10;0.40;;;8.20;99.90;;;;;;5056306;28;20396;-86
2023/04/02 06:00:41;;;;;;;0.65;0.40;;;8.30;99.90;;;;;;5056444;28;20411;-87
2023/04/02 06:03:48;;;;;;;0.40;0.40;;;8.20;99.90;;;;;;5055407;28;20457;-87
2023/04/02 06:06:43;;;;;;;0.40;0.30;;;8.30;99.90;;;;;;5041863;28;20411;-87
2023/04/02 06:09:34;;;;;;;0.80;0.40;;;8.40;99.90;;;;;;5074525;28;20376;-87
2023/04/02 06:12:15;;;;;;;0.50;0.40;;;8.30;99.90;;;;;;5056057;28;20905;-87
2023/04/02 06:14:41;;;;;;;0.50;0.30;;;8.30;99.90;;;;;;5055490;28;20475;-86
2023/04/02 06:17:11;;;;;;;0.60;0.30;;;8.30;99.90;;;;;;5059756;28;20423;-87
2023/04/02 06:19:38;;;;;;;0.70;0.40;;;8.50;99.90;;;;;;5061858;28;20777;-87
2023/04/02 06:22:29;;;;;;;0.40;0.30;;;8.40;99.90;;;;;;5074281;28;20433;-87
2023/04/02 06:25:05;;;;;;;0.50;0.50;;;8.40;99.90;;;;;;5056631;28;20392;-89
2023/04/02 06:27:33;;;;;;;0.90;0.40;;;8.30;99.90;;;;;;5055791;28;20431;-87
2023/04/02 06:30:06;;;;;;;0.50;0.30;;;8.40;99.90;;;;;;5074332;28;20379;-87
2023/04/02 06:32:31;;;;;;;0.70;0.40;;;8.40;99.90;;;;;;5056921;28;20380;-86
2023/04/02 06:34:57;;;;;;;0.60;0.50;;;8.40;99.90;;;;;;5056046;28;20390;-87
2023/04/02 06:37:36;;;;;;;0.63;0.45;;;8.40;99.90;;;;;;5072784;28;20460;-87
2023/04/02 06:40:04;;;;;;;0.50;0.30;;;8.50;99.90;;;;;;5072556;28;20903;-86
2023/04/02 06:42:36;;;;;;;1.05;0.40;;;8.50;99.90;;;;;;5056358;28;20376;-86
2023/04/02 06:45:01;;;;;;;0.60;0.40;;;8.40;99.90;;;;;;5062795;28;20763;-88
2023/04/02 06:47:41;;;;;;;0.40;0.30;;;8.50;99.90;;;;;;5034658;28;20385;-87
2023/04/02 06:50:11;;;;;;;0.50;0.30;;;8.60;99.90;;;;;;5034630;28;20388;-87
2023/04/02 06:52:49;;;;;;;0.50;0.40;;;8.50;99.90;;;;;;5053451;28;20389;-86
2023/04/02 06:55:46;;;;;;;0.60;0.30;;;8.50;99.90;;;;;;5057524;28;20403;-87
2023/04/02 06:58:11;;;;;;;0.40;0.30;;;8.60;99.90;;;;;;5069011;28;20393;-86
2023/04/02 07:00:46;;;;;;;0.50;0.40;;;8.70;99.90;;;;;;5051686;28;20415;-87
2023/04/02 07:03:27;;;;;;;0.60;0.40;;;8.70;99.90;;;;;;5074672;28;20381;-88
2023/04/02 07:05:53;;;;;;;0.50;0.40;;;8.80;99.90;;;;;;5076162;28;20468;-87
2023/04/02 07:08:19;;;;;;;0.50;0.40;;;8.80;99.90;;;;;;5092771;28;20912;-86
2023/04/02 07:10:45;;;;;;;0.80;0.50;;;8.90;99.90;;;;;;5068187;28;20388;-86
2023/04/02 07:13:17;;;;;;;1.00;0.30;;;9.00;99.90;;;;;;5082027;28;20450;-87
2023/04/02 07:15:47;;;;;;;0.50;0.30;;;8.90;99.90;;;;;;5083173;28;20380;-87
2023/04/02 07:18:25;;;;;;;0.90;0.40;;;9.00;99.90;;;;;;5059803;28;20390;-86
2023/04/02 07:20:51;;;;;;;0.80;0.60;;;9.10;99.90;;;;;;5061793;28;20414;-87
2023/04/02 07:23:17;;;;;;;0.90;0.70;;;9.10;99.90;;;;;;5061186;28;20452;-87
2023/04/02 07:25:42;;;;;;;0.80;0.60;;;9.10;99.90;;;;;;5079216;28;20379;-85
2023/04/02 07:28:08;;;;;;;0.70;0.50;;;9.10;99.90;;;;;;5076192;28;20391;-86
2023/04/02 07:30:34;;;;;;;0.80;0.50;;;9.20;99.90;;;;;;5059180;28;20387;-87
2023/04/02 07:33:00;;;;;;;1.00;0.50;;;9.30;99.90;;;;;;5077688;28;20440;-86
2023/04/02 07:35:26;;;;;;;0.50;0.40;;;9.30;99.90;;;;;;5056543;28;20390;-84
2023/04/02 07:37:51;;;;;;;0.80;0.60;;;9.20;99.90;;;;;;5072379;28;20455;-86
2023/04/02 07:40:20;;;;;;;0.57;0.40;;;9.30;99.90;;;;;;5054160;28;20898;-86
2023/04/02 07:42:46;;;;;;;0.98;0.47;;;9.40;99.90;;;;;;5055994;28;20449;-87
2023/04/02 07:45:12;;;;;;;0.60;0.60;;;9.50;99.90;;;;;;5053400;28;20885;-85
2023/04/02 07:47:39;;;;;;;0.60;0.40;;;9.50;99.90;;;;;;5076783;28;20886;-86
2023/04/02 07:50:07;;;;;;;1.10;0.50;;;9.60;99.90;;;;;;5060020;28;20414;-86
2023/04/02 07:52:33;;;;;;;0.60;0.50;;;9.50;99.90;;;;;;5074926;28;20407;-86
2023/04/02 07:54:58;;;;;;;0.90;0.47;;;9.70;99.90;;;;;;5059258;28;20412;-87
2023/04/02 07:57:24;;;;;;;0.50;0.30;;;9.70;99.90;;;;;;5059278;28;20394;-87
2023/04/02 07:59:50;;;;;;;0.50;0.40;;;9.70;99.90;;;;;;5057896;28;20422;-87
2023/04/02 08:02:22;;;;;;;0.40;0.30;;;9.80;99.90;;;;;;5074060;28;20395;-85
2023/04/02 08:04:50;;;;;;;0.60;0.50;;;9.80;99.90;;;;;;5063643;28;20464;-87
2023/04/02 08:07:15;;;;;;;0.50;0.40;;;9.90;99.90;;;;;;5057110;28;20388;-87
2023/04/02 08:09:41;;;;;;;0.70;0.40;;;10.10;99.90;;;;;;5057152;28;20399;-86
2023/04/02 08:12:07;;;;;;;0.50;0.50;;;10.10;99.90;;;;;;5078215;28;20411;-87
2023/04/02 08:14:33;;;;;;;1.10;0.80;;;10.10;99.90;;;;;;5079788;28;20409;-88
2023/04/02 08:16:58;;;;;;;0.77;0.60;;;10.30;99.90;;;;;;5056064;28;20599;-87
2023/04/02 08:19:24;;;;;;;0.50;0.50;;;10.10;99.90;;;;;;5073896;28;20426;-86
2023/04/02 08:21:50;;;;;;;0.60;0.40;;;10.10;99.90;;;;;;5058431;28;20391;-87
2023/04/02 08:24:18;;;;;;;0.70;0.40;;;10.10;99.90;;;;;;5077078;28;20829;-87
2023/04/02 08:26:44;;;;;;;1.80;0.50;;;10.30;99.90;;;;;;5059242;28;20380;-87
2023/04/02 08:29:10;;;;;;;0.70;0.50;;;10.50;99.90;;;;;;5060365;28;20506;-87
2023/04/02 08:31:36;;;;;;;0.50;0.40;;;10.60;99.90;;;;;;5059041;28;20453;-87
2023/04/02 08:34:02;;;;;;;0.40;0.40;;;10.80;99.90;;;;;;5059293;28;20376;-87
2023/04/02 08:36:36;;;;;;;0.90;0.30;;;10.90;99.90;;;;;;5058141;28;20387;-87
2023/04/02 08:39:03;;;;;;;0.80;0.40;;;10.80;99.90;;;;;;5058980;28;20423;-87
2023/04/02 08:41:35;;;;;;;0.50;0.30;;;10.70;99.90;;;;;;5061729;28;20813;-87
2023/04/02 08:44:10;;;;;;;0.60;0.40;;;10.60;99.90;;;;;;5058232;28;20753;-87
2023/04/02 08:46:44;;;;;;;0.60;0.50;;;10.80;99.90;;;;;;5076242;28;20731;-85
2023/04/02 08:49:17;;;;;;;1.00;0.30;;;10.90;99.90;;;;;;5076448;28;20386;-88
2023/04/02 08:51:44;;;;;;;0.40;0.30;;;10.90;99.90;;;;;;5058311;28;20873;-87
2023/04/02 08:54:26;;;;;;;0.90;0.40;;;11.00;99.90;;;;;;5057743;28;20437;-87
2023/04/02 08:57:06;;;;;;;0.50;0.40;;;10.80;99.90;;;;;;5058384;28;20384;-87
2023/04/02 08:59:35;;;;;;;0.40;0.30;;;10.90;99.90;;;;;;5075927;28;20442;-87
2023/04/02 09:02:12;;;;;;;0.40;0.30;;;10.80;99.90;;;;;;5076566;28;20367;-87
2023/04/02 09:04:39;;;;;;;0.60;0.30;;;10.90;99.90;;;;;;5075600;28;20380;-87
2023/04/02 09:07:05;;;;;;;0.82;0.40;;;10.90;99.90;;;;;;5075248;28;20379;-87
2023/04/02 09:09:36;;;;;;;0.40;0.40;;;11.00;99.90;;;;;;5058742;28;20521;-86
2023/04/02 09:12:03;;;;;;;1.38;0.60;;;10.70;99.90;;;;;;5060301;28;20411;-87
2023/04/02 09:14:40;;;;;;;0.57;0.30;;;11.00;99.90;;;;;;5077386;28;20391;-86
2023/04/02 09:17:19;;;;;;;0.60;0.30;;;10.90;99.90;;;;;;5058156;28;20869;-87
2023/04/02 09:20:08;;;;;;;0.40;0.30;;;11.00;99.90;;;;;;5058420;28;20407;-86
2023/04/02 09:22:33;;;;;;;0.57;0.40;;;11.20;99.90;;;;;;5058266;28;20379;-87
2023/04/02 09:25:05;;;;;;;0.50;0.30;;;11.30;99.90;;;;;;5059523;28;20465;-86
2023/04/02 09:27:35;;;;;;;0.68;0.40;;;11.20;99.90;;;;;;5061912;28;20390;-87
2023/04/02 09:30:38;;;;;;;0.80;0.40;;;11.10;99.90;;;;;;5077014;28;20449;-87
2023/04/02 09:33:08;;;;;;;0.50;0.30;;;11.40;99.90;;;;;;5078741;28;20391;-88
2023/04/02 09:35:36;;;;;;;1.25;0.50;;;11.50;99.90;;;;;;5058082;28;20398;-87
2023/04/02 09:38:20;;;;;;;0.70;0.40;;;11.40;99.90;;;;;;5076074;28;20844;-87
2023/04/02 09:41:00;;;;;;;0.50;0.50;;;11.60;99.90;;;;;;5062403;28;20407;-87
2023/04/02 09:43:29;;;;;;;1.10;0.30;;;11.50;99.90;;;;;;5081345;28;20387;-88
2023/04/02 09:46:01;;;;;;;0.40;0.30;;;11.70;99.90;;;;;;5061847;28;20394;-87
2023/04/02 09:48:36;;;;;;;0.50;0.40;;;11.50;99.90;;;;;;5073230;28;20380;-87
2023/04/02 09:51:27;;;;;;;0.50;0.40;;;11.70;99.90;;;;;;5076449;28;20451;-87
2023/04/02 09:54:15;;;;;;;1.50;0.40;;;11.60;99.90;;;;;;5075737;28;20873;-88
2023/04/02 09:57:01;;;;;;;0.50;0.40;;;11.50;99.90;;;;;;5056971;28;20391;-87
2023/04/02 09:59:27;;;;;;;0.50;0.40;;;11.60;99.90;;;;;;5076725;28;20478;-87
2023/04/02 10:01:52;;;;;;;0.40;0.30;;;11.70;99.90;;;;;;5059179;28;20368;-87
2023/04/02 10:04:46;;;;;;;0.40;0.30;;;11.50;99.90;;;;;;5060766;28;20384;-87
2023/04/02 10:07:36;;;;;;;0.40;0.30;;;11.50;99.90;;;;;;5049129;28;20392;-87
2023/04/02 10:10:23;;;;;;;0.47;0.30;;;11.60;99.90;;;;;;5057701;28;20445;-87
2023/04/02 10:13:05;;;;;;;0.60;0.40;;;11.70;99.90;;;;;;5075461;28;20388;-87
2023/04/02 10:15:43;;;;;;;0.47;0.30;;;12.10;99.90;;;;;;5075804;28;20380;-88
2023/04/02 10:18:30;;;;;;;0.40;0.30;;;11.90;99.90;;;;;;5059573;28;20399;-88
2023/04/02 10:20:58;;;;;;;0.40;0.38;;;12.00;99.90;;;;;;5059206;28;20502;-87
2023/04/02 10:23:27;;;;;;;0.50;0.40;;;12.20;99.10;;;;;;5085133;28;20474;-87
2023/04/02 10:26:11;;;;;;;0.50;0.40;;;12.60;99.60;;;;;;5092436;28;20478;-87
2023/04/02 10:28:57;;;;;;;0.50;0.30;;;12.50;99.80;;;;;;5092845;28;20395;-88
2023/04/02 10:31:28;;;;;;;1.90;0.40;;;12.60;99.90;;;;;;5074385;28;20391;-87
2023/04/02 10:34:03;;;;;;;0.40;0.30;;;12.40;92.20;;;;;;5075131;28;20382;-87
2023/04/02 10:36:53;;;;;;;0.60;0.50;;;12.50;96.40;;;;;;5074562;28;20388;-87
2023/04/02 10:39:42;;;;;;;0.40;0.30;;;12.40;99.90;;;;;;5075027;28;20477;-88
2023/04/02 10:42:36;;;;;;;0.40;0.30;;;12.40;95.40;;;;;;5037255;28;20390;-87
2023/04/02 10:45:33;;;;;;;0.50;0.40;;;12.20;90.40;;;;;;5083232;28;20441;-86
2023/04/02 10:48:23;;;;;;;0.60;0.30;;;12.40;86.70;;;;;;5072058;28;20381;-87
2023/04/02 10:50:59;;;;;;;1.20;0.40;;;12.70;90.30;;;;;;5051821;28;20445;-88
2023/04/02 10:53:49;;;;;;;0.60;0.40;;;12.80;86.50;;;;;;5054882;28;20369;-88
2023/04/02 10:56:14;;;;;;;0.40;0.30;;;12.90;85.50;;;;;;5067055;28;20409;-87
2023/04/02 10:59:05;;;;;;;0.40;0.30;;;13.10;84.00;;;;;;5035667;28;20386;-87
2023/04/02 11:01:33;;;;;;;0.60;0.40;;;13.60;73.70;;;;;;5035045;28;20402;-87
2023/04/02 11:04:16;;;;;;;0.43;0.30;;;14.00;68.60;;;;;;5034394;28;20407;-87
2023/04/02 11:06:46;;;;;;;0.70;0.40;;;14.30;57.50;;;;;;5034882;28;20392;-87
2023/04/02 11:09:20;;;;;;;0.80;0.30;;;14.00;48.80;;;;;;5034705;28;20390;-87
2023/04/02 11:11:49;;;;;;;0.40;0.30;;;13.90;52.60;;;;;;5034923;28;20381;-87
2023/04/02 11:14:19;;;;;;;0.50;0.30;;;14.20;50.50;;;;;;5035683;28;20485;-87
2023/04/02 11:16:48;;;;;;;0.70;0.40;;;13.70;48.30;;;;;;5036137;28;20393;-87
2023/04/02 11:19:14;;;;;;;0.40;0.30;;;14.50;48.60;;;;;;5052988;28;20882;-88
2023/04/02 11:21:54;;;;;;;0.40;0.30;;;14.70;44.50;;;;;;5034777;28;20401;-87
2023/04/02 11:24:30;;;;;;;0.40;0.30;;;14.60;44.60;;;;;;5035086;28;20386;-88
2023/04/02 11:27:11;;;;;;;0.45;0.30;;;14.60;43.90;;;;;;5034504;28;20432;-87
2023/04/02 11:29:41;;;;;;;0.47;0.30;;;14.60;43.50;;;;;;5052131;28;20448;-87
2023/04/02 11:32:20;;;;;;;0.40;0.30;;;15.10;41.20;;;;;;5043428;28;20381;-86
2023/04/02 11:34:45;;;;;;;0.40;0.35;;;15.40;38.30;;;;;;5048674;28;20519;-87
2023/04/02 11:37:35;;;;;;;0.50;0.40;;;15.40;42.50;;;;;;5054488;28;20413;-87
2023/04/02 11:40:10;;;;;;;0.80;0.40;;;15.50;41.30;;;;;;5035386;28;20409;-87
2023/04/02 11:42:36;;;;;;;0.82;0.40;;;15.50;42.50;;;;;;5034132;28;20475;-87
2023/04/02 11:45:23;;;;;;;0.70;0.50;;;16.50;43.20;;;;;;5043814;28;20384;-87
2023/04/02 11:48:00;;;;;;;0.57;0.40;;;17.50;38.00;;;;;;5054507;28;20380;-88
2023/04/02 11:50:30;;;;;;;0.50;0.30;;;18.00;27.50;;;;;;5054081;28;20376;-87
2023/04/02 11:53:11;;;;;;;0.50;0.30;;;16.80;32.30;;;;;;5054784;28;20908;-87
2023/04/02 11:55:45;;;;;;;0.60;0.43;;;17.30;26.20;;;;;;5053369;28;20384;-88
2023/04/02 11:58:32;;;;;;;0.60;0.30;;;17.60;24.60;;;;;;5060135;28;20441;-87
2023/04/02 12:01:25;;;;;;;0.80;0.30;;;16.50;21.40;;;;;;5054630;28;20439;-88
2023/04/02 12:04:18;;;;;;;0.60;0.40;;;16.10;25.00;;;;;;5053552;28;20427;-87
2023/04/02 12:07:09;;;;;;;1.10;0.30;;;16.10;28.90;;;;;;5053871;28;20391;-87
2023/04/02 12:09:57;;;;;;;0.50;0.30;;;16.30;27.10;;;;;;5055001;28;20375;-87
2023/04/02 12:12:23;;;;;;;0.50;0.30;;;17.30;27.40;;;;;;5071932;28;20390;-88
2023/04/02 12:14:51;;;;;;;0.60;0.30;;;17.60;25.00;;;;;;5058043;28;20417;-87
2023/04/02 12:17:33;;;;;;;0.60;0.50;;;19.30;21.30;;;;;;5081122;28;20359;-87
2023/04/02 12:20:07;;;;;;;0.57;0.32;;;18.60;20.00;;;;;;5058724;28;20435;-87
2023/04/02 12:22:53;;;;;;;1.20;0.40;;;18.40;20.00;;;;;;5060908;28;20390;-87
2023/04/02 12:25:39;;;;;;;0.90;0.40;;;19.50;17.10;;;;;;5088419;28;20431;-88
2023/04/02 12:28:08;;;;;;;0.60;0.40;;;18.50;19.70;;;;;;5070419;28;20465;-87
2023/04/02 12:30:34;;;;;;;0.40;0.30;;;18.60;17.30;;;;;;5078377;28;20481;-87
2023/04/02 12:33:19;;;;;;;0.50;0.30;;;19.50;14.10;;;;;;5054366;28;20392;-87
2023/04/02 12:35:46;;;;;;;0.40;0.30;;;18.90;18.30;;;;;;5054300;28;20399;-87
2023/04/02 12:38:29;;;;;;;0.40;0.40;;;19.10;14.40;;;;;;5054847;28;20376;-88
2023/04/02 12:41:04;;;;;;;0.55;0.32;;;19.10;15.20;;;;;;5056760;28;20469;-87
2023/04/02 12:43:36;;;;;;;0.50;0.30;;;18.30;16.10;;;;;;5053809;28;20384;-88
2023/04/02 12:46:07;;;;;;;0.80;0.30;;;18.60;15.80;;;;;;5071778;28;20738;-88
2023/04/02 12:48:33;;;;;;;0.60;0.40;;;19.90;16.70;;;;;;5057784;28;20379;-88
2023/04/02 12:51:01;;;;;;;0.50;0.30;;;20.70;11.50;;;;;;5076680;28;20426;-88
2023/04/02 12:53:38;;;;;;;0.50;0.30;;;20.30;12.70;;;;;;5071198;28;20415;-88
2023/04/02 12:56:05;;;;;;;0.60;0.40;;;20.00;13.20;;;;;;5076514;28;20391;-89
2023/04/02 12:58:40;;;;;;;1.50;0.40;;;19.00;11.10;;;;;;5068507;28;20400;-88
2023/04/02 13:01:17;;;;;;;0.90;0.30;;;19.70;11.10;;;;;;5055348;28;20516;-88
2023/04/02 13:03:58;;;;;;;0.47;0.30;;;19.60;10.80;;;;;;5054621;28;20376;-88
2023/04/02 13:06:25;;;;;;;0.50;0.35;;;19.20;11.90;;;;;;5055945;28;20398;-88
2023/04/02 13:08:53;;;;;;;0.70;0.30;;;18.10;13.80;;;;;;5059799;28;20384;-87
2023/04/02 13:11:19;;;;;;;0.60;0.30;;;17.90;17.00;;;;;;5063982;28;20882;-88
2023/04/02 13:13:46;;;;;;;0.57;0.35;;;17.40;19.40;;;;;;5059114;28;20467;-87
2023/04/02 13:16:11;;;;;;;0.50;0.30;;;18.40;18.20;;;;;;5057491;28;20489;-88
2023/04/02 13:18:38;;;;;;;0.50;0.40;;;18.70;15.70;;;;;;5056873;28;20459;-87
2023/04/02 13:21:27;;;;;;;0.40;0.30;;;18.40;15.40;;;;;;5075481;28;20464;-87
2023/04/02 13:23:53;;;;;;;0.50;0.30;;;18.20;15.00;;;;;;5075360;28;20380;-87
2023/04/02 13:26:26;;;;;;;0.70;0.40;;;17.70;13.80;;;;;;5058154;28;20437;-87
2023/04/02 13:29:01;;;;;;;0.50;0.35;;;18.70;14.10;;;;;;5059603;28;20388;-87
2023/04/02 13:31:28;;;;;;;0.50;0.30;;;18.70;14.10;;;;;;5058890;28;20388;-87
2023/04/02 13:33:53;;;;;;;0.45;0.35;;;18.50;15.30;;;;;;5057029;28;20388;-87